Sti Aqua — V7BN2 — position and weather

sailwx.info

Track history (hours):
 
Tides and Currents Weather Stations Pressure Air Temp Water Temp Dewpoint Dewpoint Depression Visibility Wind Speed Wind Dir Waves Ship Positions

Sti Aqua

Last reported at 2017-Nov-12 11:29 UTC. Time now 2017-Nov-18 14:31 UTC.
Position N 35°21' W 012°47'.

Length 183 m; draft 8.5 m.

Type: Tanker. MMSI: 538005172.

Date/timePositionNaut miles runAvg speedWind from/ knotsBaromVisibWave heightAir tempDewpointWater temp
2017-Nov-12 11:29N 35°21' W 012°47'22810.5
2017-Nov-11 13:45N 31°42' W 014°06'9 9.5
2017-Nov-11 12:46N 31°33' W 014°09'3 9.6
2017-Nov-11 12:28N 31°31' W 014°10'9 9.3
2017-Nov-11 11:29N 31°22' W 014°13'4 9.1
2017-Nov-11 10:59N 31°17' W 014°14'7 9.3
2017-Nov-11 10:17N 31°11' W 014°16'3 9.0
2017-Nov-11 09:57N 31°08' W 014°17'4 8.8
2017-Nov-11 09:28N 31°04' W 014°19'4 8.6
2017-Nov-11 09:00N 31°00' W 014°20'8 9.4
2017-Nov-11 08:09N 30°53' W 014°23'1 9.1
2017-Nov-11 08:01N 30°52' W 014°23'4 8.8
2017-Nov-11 07:31N 30°47' W 014°25'5 8.7
2017-Nov-11 06:59N 30°43' W 014°26'4 8.9
2017-Nov-11 06:30N 30°39' W 014°28'5 9.2
2017-Nov-11 06:01N 30°35' W 014°29'5 9.3
2017-Nov-11 05:31N 30°30' W 014°31'7 9.0
2017-Nov-11 04:44N 30°23' W 014°33'2 9.2
2017-Nov-11 04:31N 30°21' W 014°33'8 9.2
2017-Nov-11 03:40N 30°14' W 014°36'2 9.0
2017-Nov-11 03:24N 30°12' W 014°37'4 8.6
2017-Nov-11 03:00N 30°08' W 014°38'4 8.5
2017-Nov-11 02:30N 30°04' W 014°39'4 8.2
2017-Nov-11 02:00N 30°00' W 014°41'6 8.5
2017-Nov-11 01:19N 29°55' W 014°43'3 8.6
2017-Nov-11 00:57N 29°52' W 014°44'4 8.8
2017-Nov-11 00:30N 29°48' W 014°45'5 8.9
2017-Nov-11 00:00N 29°44' W 014°47'4 8.9
2017-Nov-10 23:30N 29°39' W 014°48'5 9.0
2017-Nov-10 23:00N 29°35' W 014°49'4 8.3
2017-Nov-10 22:30N 29°31' W 014°51'4 8.3
2017-Nov-10 22:00N 29°27' W 014°52'4 8.1
2017-Nov-10 21:29N 29°23' W 014°54'4 8.6
2017-Nov-10 21:00N 29°19' W 014°55'4 8.3
2017-Nov-10 20:31N 29°15' W 014°56'4 7.9
2017-Nov-10 20:00N 29°11' W 014°58'4 8.3
2017-Nov-10 19:30N 29°07' W 014°59'4 8.1
2017-Nov-10 19:01N 29°04' W 015°00'4 8.2
2017-Nov-10 18:30N 28°59' W 015°01'4 7.9
2017-Nov-10 18:00N 28°56' W 015°03'4 8.0
2017-Nov-10 17:31N 28°52' W 015°04'4 8.0
2017-Nov-10 17:00N 28°48' W 015°05'5 8.3
2017-Nov-10 16:25N 28°43' W 015°07'4 8.4
2017-Nov-10 15:59N 28°40' W 015°08'4 8.6
2017-Nov-10 15:30N 28°36' W 015°09'4 8.6
2017-Nov-10 15:01N 28°32' W 015°11'4 8.8
2017-Nov-10 14:30N 28°28' W 015°12'4 8.7
2017-Nov-10 14:00N 28°23' W 015°14'4 8.8
2017-Nov-10 13:30N 28°19' W 015°15'4 9.0
2017-Nov-10 13:00N 28°15' W 015°17'4 8.8
2017-Nov-10 12:30N 28°11' W 015°19'4 8.6
2017-Nov-10 12:00N 28°08' W 015°22'3 4.8
2017-Nov-10 11:25N 28°07' W 015°25'0 0.1
2017-Nov-10 10:55N 28°07' W 015°25'0 0.1
2017-Nov-10 10:25N 28°07' W 015°25'0 0.0
2017-Nov-10 09:55N 28°07' W 015°25'0 0.0
2017-Nov-10 09:22N 28°07' W 015°25'0 0.1
2017-Nov-10 08:55N 28°07' W 015°25'0 0.1
2017-Nov-10 08:28N 28°07' W 015°25'0 0.0
2017-Nov-10 07:58N 28°07' W 015°25'0 0.0
2017-Nov-10 07:28N 28°07' W 015°25'0 0.0
2017-Nov-10 06:58N 28°07' W 015°25'0 0.1
2017-Nov-10 06:28N 28°07' W 015°25'0 0.2
2017-Nov-10 05:58N 28°07' W 015°25'0 0.0
2017-Nov-10 05:28N 28°07' W 015°25'0 0.1
2017-Nov-10 04:46N 28°07' W 015°25'0 0.1
2017-Nov-10 04:28N 28°07' W 015°25'0 0.0
2017-Nov-10 03:58N 28°07' W 015°25'0 0.2
2017-Nov-10 03:19N 28°07' W 015°25'0 0.8
2017-Nov-10 03:00N 28°07' W 015°25'1 1.6
2017-Nov-10 02:24N 28°08' W 015°24'0 0.2
2017-Nov-10 01:54N 28°08' W 015°24'0 0.1
2017-Nov-10 01:24N 28°08' W 015°24'0 0.0
2017-Nov-10 00:57N 28°08' W 015°24'0 0.1
2017-Nov-10 00:27N 28°08' W 015°24'0 0.1
2017-Nov-09 23:57N 28°08' W 015°24'0 0.0
2017-Nov-09 23:27N 28°08' W 015°24'0 0.0
2017-Nov-09 22:57N 28°08' W 015°24'0 0.0
2017-Nov-09 22:27N 28°08' W 015°24'0 0.0
2017-Nov-09 22:00N 28°08' W 015°24'0 0.0
2017-Nov-09 21:27N 28°08' W 015°24'0 0.0
2017-Nov-09 21:00N 28°08' W 015°24'0 0.0
2017-Nov-09 20:30N 28°08' W 015°24'0 0.0
2017-Nov-09 20:00N 28°08' W 015°24'0 0.0
2017-Nov-09 19:30N 28°08' W 015°24'0 0.0
2017-Nov-09 19:00N 28°08' W 015°24'0 0.0
2017-Nov-09 18:30N 28°08' W 015°24'0 0.0
2017-Nov-09 18:00N 28°08' W 015°24'0 0.0
2017-Nov-09 17:30N 28°08' W 015°24'0 0.0
2017-Nov-09 17:00N 28°08' W 015°24'0 0.0
2017-Nov-09 16:30N 28°08' W 015°24'0 0.0
2017-Nov-09 16:00N 28°08' W 015°24'0 0.0
2017-Nov-09 15:30N 28°08' W 015°24'0 0.0
2017-Nov-09 15:00N 28°08' W 015°24'0 0.0
2017-Nov-09 14:21N 28°08' W 015°24'0 0.0
2017-Nov-09 13:51N 28°08' W 015°24'0 0.0
2017-Nov-09 13:24N 28°08' W 015°24'0 0.0
2017-Nov-09 12:54N 28°08' W 015°24'0 0.0
2017-Nov-09 12:24N 28°08' W 015°24'0 0.0
2017-Nov-09 11:54N 28°08' W 015°24'0 0.1
2017-Nov-09 11:24N 28°08' W 015°24'0 0.0
2017-Nov-09 10:54N 28°08' W 015°24'0 0.0
2017-Nov-09 10:27N 28°08' W 015°24'0 0.1
2017-Nov-09 10:00N 28°08' W 015°24'0 0.1
2017-Nov-09 09:30N 28°08' W 015°24'0 0.1
2017-Nov-09 09:00N 28°08' W 015°24'0 0.0
2017-Nov-09 08:30N 28°08' W 015°24'0 0.1
2017-Nov-09 08:00N 28°08' W 015°24'0 0.1
2017-Nov-09 07:21N 28°08' W 015°24'0 0.0
2017-Nov-09 06:51N 28°08' W 015°24'0 0.0
2017-Nov-09 06:21N 28°08' W 015°24'0 0.0
2017-Nov-09 05:54N 28°08' W 015°24'0 0.0
2017-Nov-09 05:24N 28°08' W 015°24'0 0.0
2017-Nov-09 04:54N 28°08' W 015°24'0 0.1
2017-Nov-09 04:24N 28°08' W 015°24'0 0.1
2017-Nov-09 03:54N 28°08' W 015°24'0 0.0
2017-Nov-09 03:27N 28°08' W 015°24'0 0.0
2017-Nov-09 02:57N 28°08' W 015°24'0 0.0
2017-Nov-09 02:27N 28°08' W 015°24'0 0.0
2017-Nov-09 01:57N 28°08' W 015°24'0 0.1
2017-Nov-09 01:27N 28°08' W 015°24'0 0.1
2017-Nov-09 00:57N 28°08' W 015°24'0 0.0
2017-Nov-09 00:30N 28°08' W 015°24'0 0.0
2017-Nov-09 00:00N 28°08' W 015°24'0 0.1
2017-Nov-08 23:30N 28°08' W 015°24'0 0.0
2017-Nov-08 23:00N 28°08' W 015°24'0 0.1
2017-Nov-08 22:30N 28°08' W 015°24'0 0.1
2017-Nov-08 22:00N 28°08' W 015°24'0 0.0
2017-Nov-08 21:30N 28°08' W 015°24'0 0.1
2017-Nov-08 21:00N 28°08' W 015°24'0 0.1
2017-Nov-08 20:18N 28°08' W 015°24'0 0.1
2017-Nov-08 20:00N 28°08' W 015°24'0 0.1
2017-Nov-08 19:30N 28°08' W 015°24'0 0.0
2017-Nov-08 19:00N 28°08' W 015°24'0 0.0
2017-Nov-08 18:30N 28°08' W 015°24'0 0.0
2017-Nov-08 18:00N 28°08' W 015°24'0 0.0
2017-Nov-08 17:21N 28°08' W 015°24'0 0.0
2017-Nov-08 16:51N 28°08' W 015°24'0 0.0
2017-Nov-08 16:24N 28°08' W 015°24'0 0.0
2017-Nov-08 15:54N 28°08' W 015°24'0 0.0
2017-Nov-08 15:24N 28°08' W 015°24'0 0.0
2017-Nov-08 14:54N 28°08' W 015°24'0 0.1
2017-Nov-08 14:24N 28°08' W 015°24'0 0.0
2017-Nov-08 13:54N 28°08' W 015°24'0 0.0
2017-Nov-08 13:27N 28°08' W 015°24'0 0.0
2017-Nov-08 12:57N 28°08' W 015°24'0 0.0
2017-Nov-08 12:27N 28°08' W 015°24'0 0.0
2017-Nov-08 11:57N 28°08' W 015°24'0 0.1
2017-Nov-08 11:30N 28°08' W 015°24'2 3.5
2017-Nov-08 11:00N 28°07' W 015°22'1 1.4
2017-Nov-08 10:30N 28°07' W 015°22'0 0.4
2017-Nov-08 10:00N 28°07' W 015°22'1 3.0
2017-Nov-08 09:30N 28°06' W 015°22'3 6.8
2017-Nov-08 09:00N 28°04' W 015°18'5 9.2
2017-Nov-08 08:30N 28°00' W 015°15'510.9
2017-Nov-08 08:00N 27°55' W 015°16'510.5
2017-Nov-08 07:30N 27°49' W 015°16'510.0
2017-Nov-08 07:00N 27°45' W 015°16'510.6
2017-Nov-08 06:30N 27°39' W 015°16'510.6
2017-Nov-08 06:00N 27°34' W 015°16'  
Track history (hours):
 
Tides and Currents Weather Stations Pressure Air Temp Water Temp Dewpoint Dewpoint Depression Visibility Wind Speed Wind Dir Waves Ship Positions

Sti Aqua

Last reported at 2017-Nov-12 11:29 UTC. Time now 2017-Nov-18 14:31 UTC.
Position N 35°21' W 012°47'.

Length 183 m; draft 8.5 m.

Type: Tanker. MMSI: 538005172.

Date/timePositionNaut miles runAvg speedWind from/ knotsBaromVisibWave heightAir tempDewpointWater temp
2017-Nov-12 11:29N 35°21' W 012°47'22810.5
2017-Nov-11 13:45N 31°42' W 014°06'9 9.5
2017-Nov-11 12:46N 31°33' W 014°09'3 9.6
2017-Nov-11 12:28N 31°31' W 014°10'9 9.3
2017-Nov-11 11:29N 31°22' W 014°13'4 9.1
2017-Nov-11 10:59N 31°17' W 014°14'7 9.3
2017-Nov-11 10:17N 31°11' W 014°16'3 9.0
2017-Nov-11 09:57N 31°08' W 014°17'4 8.8
2017-Nov-11 09:28N 31°04' W 014°19'4 8.6
2017-Nov-11 09:00N 31°00' W 014°20'8 9.4
2017-Nov-11 08:09N 30°53' W 014°23'1 9.1
2017-Nov-11 08:01N 30°52' W 014°23'4 8.8
2017-Nov-11 07:31N 30°47' W 014°25'5 8.7
2017-Nov-11 06:59N 30°43' W 014°26'4 8.9
2017-Nov-11 06:30N 30°39' W 014°28'5 9.2
2017-Nov-11 06:01N 30°35' W 014°29'5 9.3
2017-Nov-11 05:31N 30°30' W 014°31'7 9.0
2017-Nov-11 04:44N 30°23' W 014°33'2 9.2
2017-Nov-11 04:31N 30°21' W 014°33'8 9.2
2017-Nov-11 03:40N 30°14' W 014°36'2 9.0
2017-Nov-11 03:24N 30°12' W 014°37'4 8.6
2017-Nov-11 03:00N 30°08' W 014°38'4 8.5
2017-Nov-11 02:30N 30°04' W 014°39'4 8.2
2017-Nov-11 02:00N 30°00' W 014°41'6 8.5
2017-Nov-11 01:19N 29°55' W 014°43'3 8.6
2017-Nov-11 00:57N 29°52' W 014°44'4 8.8
2017-Nov-11 00:30N 29°48' W 014°45'5 8.9
2017-Nov-11 00:00N 29°44' W 014°47'4 8.9
2017-Nov-10 23:30N 29°39' W 014°48'5 9.0
2017-Nov-10 23:00N 29°35' W 014°49'4 8.3
2017-Nov-10 22:30N 29°31' W 014°51'4 8.3
2017-Nov-10 22:00N 29°27' W 014°52'4 8.1
2017-Nov-10 21:29N 29°23' W 014°54'4 8.6
2017-Nov-10 21:00N 29°19' W 014°55'4 8.3
2017-Nov-10 20:31N 29°15' W 014°56'4 7.9
2017-Nov-10 20:00N 29°11' W 014°58'4 8.3
2017-Nov-10 19:30N 29°07' W 014°59'4 8.1
2017-Nov-10 19:01N 29°04' W 015°00'4 8.2
2017-Nov-10 18:30N 28°59' W 015°01'4 7.9
2017-Nov-10 18:00N 28°56' W 015°03'4 8.0
2017-Nov-10 17:31N 28°52' W 015°04'4 8.0
2017-Nov-10 17:00N 28°48' W 015°05'5 8.3
2017-Nov-10 16:25N 28°43' W 015°07'4 8.4
2017-Nov-10 15:59N 28°40' W 015°08'4 8.6
2017-Nov-10 15:30N 28°36' W 015°09'4 8.6
2017-Nov-10 15:01N 28°32' W 015°11'4 8.8
2017-Nov-10 14:30N 28°28' W 015°12'4 8.7
2017-Nov-10 14:00N 28°23' W 015°14'4 8.8
2017-Nov-10 13:30N 28°19' W 015°15'4 9.0
2017-Nov-10 13:00N 28°15' W 015°17'4 8.8
2017-Nov-10 12:30N 28°11' W 015°19'4 8.6
2017-Nov-10 12:00N 28°08' W 015°22'3 4.8
2017-Nov-10 11:25N 28°07' W 015°25'0 0.1
2017-Nov-10 10:55N 28°07' W 015°25'0 0.1
2017-Nov-10 10:25N 28°07' W 015°25'0 0.0
2017-Nov-10 09:55N 28°07' W 015°25'0 0.0
2017-Nov-10 09:22N 28°07' W 015°25'0 0.1
2017-Nov-10 08:55N 28°07' W 015°25'0 0.1
2017-Nov-10 08:28N 28°07' W 015°25'0 0.0
2017-Nov-10 07:58N 28°07' W 015°25'0 0.0
2017-Nov-10 07:28N 28°07' W 015°25'0 0.0
2017-Nov-10 06:58N 28°07' W 015°25'0 0.1
2017-Nov-10 06:28N 28°07' W 015°25'0 0.2
2017-Nov-10 05:58N 28°07' W 015°25'0 0.0
2017-Nov-10 05:28N 28°07' W 015°25'0 0.1
2017-Nov-10 04:46N 28°07' W 015°25'0 0.1
2017-Nov-10 04:28N 28°07' W 015°25'0 0.0
2017-Nov-10 03:58N 28°07' W 015°25'0 0.2
2017-Nov-10 03:19N 28°07' W 015°25'0 0.8
2017-Nov-10 03:00N 28°07' W 015°25'1 1.6
2017-Nov-10 02:24N 28°08' W 015°24'0 0.2
2017-Nov-10 01:54N 28°08' W 015°24'0 0.1
2017-Nov-10 01:24N 28°08' W 015°24'0 0.0
2017-Nov-10 00:57N 28°08' W 015°24'0 0.1
2017-Nov-10 00:27N 28°08' W 015°24'0 0.1
2017-Nov-09 23:57N 28°08' W 015°24'0 0.0
2017-Nov-09 23:27N 28°08' W 015°24'0 0.0
2017-Nov-09 22:57N 28°08' W 015°24'0 0.0
2017-Nov-09 22:27N 28°08' W 015°24'0 0.0
2017-Nov-09 22:00N 28°08' W 015°24'0 0.0
2017-Nov-09 21:27N 28°08' W 015°24'0 0.0
2017-Nov-09 21:00N 28°08' W 015°24'0 0.0
2017-Nov-09 20:30N 28°08' W 015°24'0 0.0
2017-Nov-09 20:00N 28°08' W 015°24'0 0.0
2017-Nov-09 19:30N 28°08' W 015°24'0 0.0
2017-Nov-09 19:00N 28°08' W 015°24'0 0.0
2017-Nov-09 18:30N 28°08' W 015°24'0 0.0
2017-Nov-09 18:00N 28°08' W 015°24'0 0.0
2017-Nov-09 17:30N 28°08' W 015°24'0 0.0
2017-Nov-09 17:00N 28°08' W 015°24'0 0.0
2017-Nov-09 16:30N 28°08' W 015°24'0 0.0
2017-Nov-09 16:00N 28°08' W 015°24'0 0.0
2017-Nov-09 15:30N 28°08' W 015°24'0 0.0
2017-Nov-09 15:00N 28°08' W 015°24'0 0.0
2017-Nov-09 14:21N 28°08' W 015°24'0 0.0
2017-Nov-09 13:51N 28°08' W 015°24'0 0.0
2017-Nov-09 13:24N 28°08' W 015°24'0 0.0
2017-Nov-09 12:54N 28°08' W 015°24'0 0.0
2017-Nov-09 12:24N 28°08' W 015°24'0 0.0
2017-Nov-09 11:54N 28°08' W 015°24'0 0.1
2017-Nov-09 11:24N 28°08' W 015°24'0 0.0
2017-Nov-09 10:54N 28°08' W 015°24'0 0.0
2017-Nov-09 10:27N 28°08' W 015°24'0 0.1
2017-Nov-09 10:00N 28°08' W 015°24'0 0.1
2017-Nov-09 09:30N 28°08' W 015°24'0 0.1
2017-Nov-09 09:00N 28°08' W 015°24'0 0.0
2017-Nov-09 08:30N 28°08' W 015°24'0 0.1
2017-Nov-09 08:00N 28°08' W 015°24'0 0.1
2017-Nov-09 07:21N 28°08' W 015°24'0 0.0
2017-Nov-09 06:51N 28°08' W 015°24'0 0.0
2017-Nov-09 06:21N 28°08' W 015°24'0 0.0
2017-Nov-09 05:54N 28°08' W 015°24'0 0.0
2017-Nov-09 05:24N 28°08' W 015°24'0 0.0
2017-Nov-09 04:54N 28°08' W 015°24'0 0.1
2017-Nov-09 04:24N 28°08' W 015°24'0 0.1
2017-Nov-09 03:54N 28°08' W 015°24'0 0.0
2017-Nov-09 03:27N 28°08' W 015°24'0 0.0
2017-Nov-09 02:57N 28°08' W 015°24'0 0.0
2017-Nov-09 02:27N 28°08' W 015°24'0 0.0
2017-Nov-09 01:57N 28°08' W 015°24'0 0.1
2017-Nov-09 01:27N 28°08' W 015°24'0 0.1
2017-Nov-09 00:57N 28°08' W 015°24'0 0.0
2017-Nov-09 00:30N 28°08' W 015°24'0 0.0
2017-Nov-09 00:00N 28°08' W 015°24'0 0.1
2017-Nov-08 23:30N 28°08' W 015°24'0 0.0
2017-Nov-08 23:00N 28°08' W 015°24'0 0.1
2017-Nov-08 22:30N 28°08' W 015°24'0 0.1
2017-Nov-08 22:00N 28°08' W 015°24'0 0.0
2017-Nov-08 21:30N 28°08' W 015°24'0 0.1
2017-Nov-08 21:00N 28°08' W 015°24'0 0.1
2017-Nov-08 20:18N 28°08' W 015°24'0 0.1
2017-Nov-08 20:00N 28°08' W 015°24'0 0.1
2017-Nov-08 19:30N 28°08' W 015°24'0 0.0
2017-Nov-08 19:00N 28°08' W 015°24'0 0.0
2017-Nov-08 18:30N 28°08' W 015°24'0 0.0
2017-Nov-08 18:00N 28°08' W 015°24'0 0.0
2017-Nov-08 17:21N 28°08' W 015°24'0 0.0
2017-Nov-08 16:51N 28°08' W 015°24'0 0.0
2017-Nov-08 16:24N 28°08' W 015°24'0 0.0
2017-Nov-08 15:54N 28°08' W 015°24'0 0.0
2017-Nov-08 15:24N 28°08' W 015°24'0 0.0
2017-Nov-08 14:54N 28°08' W 015°24'0 0.1
2017-Nov-08 14:24N 28°08' W 015°24'0 0.0
2017-Nov-08 13:54N 28°08' W 015°24'0 0.0
2017-Nov-08 13:27N 28°08' W 015°24'0 0.0
2017-Nov-08 12:57N 28°08' W 015°24'0 0.0
2017-Nov-08 12:27N 28°08' W 015°24'0 0.0
2017-Nov-08 11:57N 28°08' W 015°24'0 0.1
2017-Nov-08 11:30N 28°08' W 015°24'2 3.5
2017-Nov-08 11:00N 28°07' W 015°22'1 1.4
2017-Nov-08 10:30N 28°07' W 015°22'0 0.4
2017-Nov-08 10:00N 28°07' W 015°22'1 3.0
2017-Nov-08 09:30N 28°06' W 015°22'3 6.8
2017-Nov-08 09:00N 28°04' W 015°18'5 9.2
2017-Nov-08 08:30N 28°00' W 015°15'510.9
2017-Nov-08 08:00N 27°55' W 015°16'510.5
2017-Nov-08 07:30N 27°49' W 015°16'510.0
2017-Nov-08 07:00N 27°45' W 015°16'510.6
2017-Nov-08 06:30N 27°39' W 015°16'510.6
2017-Nov-08 06:00N 27°34' W 015°16'  

Dump ship's entire track history